sensor_id;sensor_type;location;lat;lon;timestamp;P1;durP1;ratioP1;P2;durP2;ratioP2
1164;SDS011;571;50.930;6.926;2022-10-16T04:01:10;1.73;;;1.20;;
1164;SDS011;571;50.930;6.926;2022-10-16T04:03:37;2.90;;;1.70;;
1164;SDS011;571;50.930;6.926;2022-10-16T04:06:04;3.60;;;1.43;;
1164;SDS011;571;50.930;6.926;2022-10-16T04:08:31;2.57;;;1.60;;
1164;SDS011;571;50.930;6.926;2022-10-16T04:10:59;1.80;;;1.43;;
1164;SDS011;571;50.930;6.926;2022-10-16T04:13:26;2.40;;;1.20;;
1164;SDS011;571;50.930;6.926;2022-10-16T04:15:53;4.30;;;1.90;;
1164;SDS011;571;50.930;6.926;2022-10-16T04:18:21;2.77;;;1.20;;
1164;SDS011;571;50.930;6.926;2022-10-16T04:20:48;2.93;;;1.70;;
1164;SDS011;571;50.930;6.926;2022-10-16T04:23:14;1.40;;;1.30;;
1164;SDS011;571;50.930;6.926;2022-10-16T04:25:41;1.43;;;1.33;;
1164;SDS011;571;50.930;6.926;2022-10-16T04:28:08;3.30;;;1.50;;
1164;SDS011;571;50.930;6.926;2022-10-16T04:30:34;2.20;;;1.47;;
1164;SDS011;571;50.930;6.926;2022-10-16T04:33:04;1.53;;;1.43;;
1164;SDS011;571;50.930;6.926;2022-10-16T04:35:32;2.07;;;1.30;;
1164;SDS011;571;50.930;6.926;2022-10-16T04:37:59;1.50;;;1.17;;
1164;SDS011;571;50.930;6.926;2022-10-16T04:40:25;1.93;;;1.20;;
1164;SDS011;571;50.930;6.926;2022-10-16T04:42:53;4.77;;;1.63;;
1164;SDS011;571;50.930;6.926;2022-10-16T04:45:19;5.03;;;1.00;;
1164;SDS011;571;50.930;6.926;2022-10-16T04:47:46;1.87;;;1.40;;
1164;SDS011;571;50.930;6.926;2022-10-16T04:50:13;4.57;;;1.57;;
1164;SDS011;571;50.930;6.926;2022-10-16T04:52:41;1.73;;;1.30;;
1164;SDS011;571;50.930;6.926;2022-10-16T04:55:08;3.13;;;1.40;;
1164;SDS011;571;50.930;6.926;2022-10-16T04:57:35;1.50;;;1.40;;
1164;SDS011;571;50.930;6.926;2022-10-16T05:00:02;1.63;;;1.50;;
1164;SDS011;571;50.930;6.926;2022-10-16T05:02:29;1.30;;;1.07;;
1164;SDS011;571;50.930;6.926;2022-10-16T05:04:56;3.37;;;1.00;;
1164;SDS011;571;50.930;6.926;2022-10-16T05:07:23;2.27;;;1.73;;
1164;SDS011;571;50.930;6.926;2022-10-16T05:09:51;1.40;;;1.30;;
1164;SDS011;571;50.930;6.926;2022-10-16T05:12:18;2.47;;;1.07;;
1164;SDS011;571;50.930;6.926;2022-10-16T05:14:45;2.30;;;1.10;;
1164;SDS011;571;50.930;6.926;2022-10-16T05:17:12;8.57;;;1.43;;
1164;SDS011;571;50.930;6.926;2022-10-16T05:19:38;1.50;;;1.40;;
1164;SDS011;571;50.930;6.926;2022-10-16T05:22:05;2.17;;;1.20;;
1164;SDS011;571;50.930;6.926;2022-10-16T05:24:32;1.13;;;1.03;;
1164;SDS011;571;50.930;6.926;2022-10-16T05:27:00;1.13;;;1.00;;
1164;SDS011;571;50.930;6.926;2022-10-16T05:29:27;1.40;;;1.30;;
1164;SDS011;571;50.930;6.926;2022-10-16T05:31:53;2.00;;;1.30;;
1164;SDS011;571;50.930;6.926;2022-10-16T05:34:20;2.33;;;1.00;;
1164;SDS011;571;50.930;6.926;2022-10-16T05:36:50;1.40;;;1.30;;
1164;SDS011;571;50.930;6.926;2022-10-16T05:39:17;2.17;;;1.20;;
1164;SDS011;571;50.930;6.926;2022-10-16T05:41:44;1.73;;;1.60;;
1164;SDS011;571;50.930;6.926;2022-10-16T05:44:12;1.80;;;1.60;;
1164;SDS011;571;50.930;6.926;2022-10-16T05:46:39;1.53;;;1.30;;
1164;SDS011;571;50.930;6.926;2022-10-16T05:49:06;1.47;;;1.37;;
1164;SDS011;571;50.930;6.926;2022-10-16T05:51:33;1.83;;;1.50;;
1164;SDS011;571;50.930;6.926;2022-10-16T05:54:00;1.83;;;1.67;;
1164;SDS011;571;50.930;6.926;2022-10-16T05:56:26;1.20;;;1.10;;
1164;SDS011;571;50.930;6.926;2022-10-16T05:58:53;2.10;;;1.50;;
1164;SDS011;571;50.930;6.926;2022-10-16T06:01:22;1.87;;;1.50;;
1164;SDS011;571;50.930;6.926;2022-10-16T06:03:49;3.20;;;1.90;;
1164;SDS011;571;50.930;6.926;2022-10-16T06:06:17;1.93;;;1.30;;
1164;SDS011;571;50.930;6.926;2022-10-16T06:08:45;2.33;;;1.50;;
1164;SDS011;571;50.930;6.926;2022-10-16T06:11:14;2.50;;;1.80;;
1164;SDS011;571;50.930;6.926;2022-10-16T06:13:44;5.53;;;2.93;;
1164;SDS011;571;50.930;6.926;2022-10-16T06:16:12;2.53;;;1.90;;
1164;SDS011;571;50.930;6.926;2022-10-16T06:18:41;2.80;;;2.50;;
1164;SDS011;571;50.930;6.926;2022-10-16T06:21:08;1.87;;;1.77;;
1164;SDS011;571;50.930;6.926;2022-10-16T06:23:37;2.23;;;2.03;;
1164;SDS011;571;50.930;6.926;2022-10-16T06:26:05;2.00;;;1.80;;
1164;SDS011;571;50.930;6.926;2022-10-16T06:28:33;2.33;;;2.13;;
1164;SDS011;571;50.930;6.926;2022-10-16T06:31:00;2.17;;;1.67;;
1164;SDS011;571;50.930;6.926;2022-10-16T06:33:27;3.00;;;1.73;;
1164;SDS011;571;50.930;6.926;2022-10-16T06:35:55;2.23;;;1.83;;
1164;SDS011;571;50.930;6.926;2022-10-16T06:38:26;2.13;;;1.93;;
1164;SDS011;571;50.930;6.926;2022-10-16T06:40:53;2.07;;;1.87;;
1164;SDS011;571;50.930;6.926;2022-10-16T06:43:20;2.03;;;1.83;;
1164;SDS011;571;50.930;6.926;2022-10-16T06:45:50;2.30;;;2.10;;
1164;SDS011;571;50.930;6.926;2022-10-16T06:48:17;2.97;;;2.13;;
1164;SDS011;571;50.930;6.926;2022-10-16T06:50:44;3.20;;;2.00;;
1164;SDS011;571;50.930;6.926;2022-10-16T06:53:22;2.40;;;2.20;;
1164;SDS011;571;50.930;6.926;2022-10-16T06:55:49;1.77;;;1.63;;
1164;SDS011;571;50.930;6.926;2022-10-16T06:58:17;2.10;;;1.90;;
1164;SDS011;571;50.930;6.926;2022-10-16T07:00:44;2.00;;;1.80;;
1164;SDS011;571;50.930;6.926;2022-10-16T07:03:11;6.10;;;2.00;;
1164;SDS011;571;50.930;6.926;2022-10-16T07:05:38;1.60;;;1.50;;
1164;SDS011;571;50.930;6.926;2022-10-16T07:08:05;2.53;;;2.20;;
1164;SDS011;571;50.930;6.926;2022-10-16T07:10:35;4.03;;;2.07;;
1164;SDS011;571;50.930;6.926;2022-10-16T07:13:02;2.70;;;2.00;;
1164;SDS011;571;50.930;6.926;2022-10-16T07:15:29;2.50;;;2.30;;
1164;SDS011;571;50.930;6.926;2022-10-16T07:17:58;2.70;;;1.60;;
1164;SDS011;571;50.930;6.926;2022-10-16T07:20:32;3.87;;;1.90;;
1164;SDS011;571;50.930;6.926;2022-10-16T07:22:59;3.00;;;1.63;;
1164;SDS011;571;50.930;6.926;2022-10-16T07:25:26;1.67;;;1.57;;
1164;SDS011;571;50.930;6.926;2022-10-16T07:30:50;1.40;;;1.30;;
1164;SDS011;571;50.930;6.926;2022-10-16T07:33:17;1.47;;;1.33;;
1164;SDS011;571;50.930;6.926;2022-10-16T07:35:48;1.70;;;1.47;;
1164;SDS011;571;50.930;6.926;2022-10-16T07:38:16;3.47;;;2.00;;
1164;SDS011;571;50.930;6.926;2022-10-16T07:40:42;2.90;;;1.47;;
1164;SDS011;571;50.930;6.926;2022-10-16T07:43:09;1.70;;;1.60;;
1164;SDS011;571;50.930;6.926;2022-10-16T07:45:38;5.57;;;1.60;;
1164;SDS011;571;50.930;6.926;2022-10-16T07:48:12;1.90;;;1.70;;
1164;SDS011;571;50.930;6.926;2022-10-16T07:50:38;2.37;;;1.30;;
1164;SDS011;571;50.930;6.926;2022-10-16T07:53:05;2.30;;;2.10;;
1164;SDS011;571;50.930;6.926;2022-10-16T07:55:32;1.73;;;1.63;;
1164;SDS011;571;50.930;6.926;2022-10-16T07:57:59;4.87;;;1.97;;
1164;SDS011;571;50.930;6.926;2022-10-16T08:00:25;13.27;;;2.27;;
1164;SDS011;571;50.930;6.926;2022-10-16T08:02:53;1.50;;;1.40;;
1164;SDS011;571;50.930;6.926;2022-10-16T08:05:21;3.40;;;1.70;;
1164;SDS011;571;50.930;6.926;2022-10-16T08:07:48;2.03;;;1.23;;
1164;SDS011;571;50.930;6.926;2022-10-16T08:10:16;3.53;;;1.83;;
1164;SDS011;571;50.930;6.926;2022-10-16T08:12:43;1.93;;;1.73;;
1164;SDS011;571;50.930;6.926;2022-10-16T08:15:10;4.53;;;2.37;;
1164;SDS011;571;50.930;6.926;2022-10-16T08:17:37;2.37;;;1.63;;
1164;SDS011;571;50.930;6.926;2022-10-16T08:20:06;1.70;;;1.57;;
1164;SDS011;571;50.930;6.926;2022-10-16T08:22:33;3.10;;;1.50;;
1164;SDS011;571;50.930;6.926;2022-10-16T08:25:00;1.73;;;1.60;;
1164;SDS011;571;50.930;6.926;2022-10-16T08:27:30;1.50;;;1.40;;
1164;SDS011;571;50.930;6.926;2022-10-16T08:29:57;1.90;;;1.50;;
1164;SDS011;571;50.930;6.926;2022-10-16T08:32:24;1.73;;;1.60;;
1164;SDS011;571;50.930;6.926;2022-10-16T08:34:51;1.70;;;1.60;;
1164;SDS011;571;50.930;6.926;2022-10-16T08:37:22;2.93;;;1.73;;
1164;SDS011;571;50.930;6.926;2022-10-16T08:39:50;7.00;;;1.70;;
1164;SDS011;571;50.930;6.926;2022-10-16T08:42:23;1.60;;;1.50;;
1164;SDS011;571;50.930;6.926;2022-10-16T08:45:10;1.40;;;1.30;;
1164;SDS011;571;50.930;6.926;2022-10-16T08:47:52;1.00;;;1.00;;
1164;SDS011;571;50.930;6.926;2022-10-16T08:50:27;1.40;;;1.30;;
1164;SDS011;571;50.930;6.926;2022-10-16T08:52:56;2.40;;;0.93;;
1164;SDS011;571;50.930;6.926;2022-10-16T08:55:31;1.97;;;0.97;;
1164;SDS011;571;50.930;6.926;2022-10-16T08:58:00;1.20;;;1.10;;
1164;SDS011;571;50.930;6.926;2022-10-16T09:00:28;1.03;;;0.90;;
1164;SDS011;571;50.930;6.926;2022-10-16T09:02:59;1.07;;;0.87;;
1164;SDS011;571;50.930;6.926;2022-10-16T09:05:40;4.77;;;1.20;;
1164;SDS011;571;50.930;6.926;2022-10-16T09:08:23;1.97;;;1.20;;
1164;SDS011;571;50.930;6.926;2022-10-16T09:10:57;2.17;;;0.90;;
1164;SDS011;571;50.930;6.926;2022-10-16T09:13:28;2.20;;;1.00;;
1164;SDS011;571;50.930;6.926;2022-10-16T09:16:01;1.20;;;1.10;;
1164;SDS011;571;50.930;6.926;2022-10-16T09:18:40;5.60;;;0.80;;
1164;SDS011;571;50.930;6.926;2022-10-16T09:21:14;3.00;;;1.17;;
1164;SDS011;571;50.930;6.926;2022-10-16T09:23:45;1.40;;;1.10;;
1164;SDS011;571;50.930;6.926;2022-10-16T09:26:14;1.23;;;1.13;;
1164;SDS011;571;50.930;6.926;2022-10-16T09:28:42;0.87;;;0.60;;
1164;SDS011;571;50.930;6.926;2022-10-16T09:31:12;1.00;;;0.60;;
1164;SDS011;571;50.930;6.926;2022-10-16T09:33:42;2.53;;;0.77;;
1164;SDS011;571;50.930;6.926;2022-10-16T09:36:11;2.20;;;0.70;;
1164;SDS011;571;50.930;6.926;2022-10-16T09:38:39;1.10;;;0.93;;
1164;SDS011;571;50.930;6.926;2022-10-16T09:41:12;1.43;;;0.70;;
1164;SDS011;571;50.930;6.926;2022-10-16T09:43:42;2.63;;;0.90;;
1164;SDS011;571;50.930;6.926;2022-10-16T09:46:21;2.87;;;1.10;;
1164;SDS011;571;50.930;6.926;2022-10-16T09:48:51;1.83;;;0.73;;
1164;SDS011;571;50.930;6.926;2022-10-16T09:51:21;1.40;;;0.73;;
1164;SDS011;571;50.930;6.926;2022-10-16T09:53:53;1.80;;;0.73;;
1164;SDS011;571;50.930;6.926;2022-10-16T09:56:24;2.57;;;1.10;;
1164;SDS011;571;50.930;6.926;2022-10-16T09:58:52;3.10;;;0.93;;
1164;SDS011;571;50.930;6.926;2022-10-16T10:01:20;1.67;;;0.50;;
1164;SDS011;571;50.930;6.926;2022-10-16T10:03:49;1.77;;;0.63;;
1164;SDS011;571;50.930;6.926;2022-10-16T10:06:18;4.93;;;0.60;;
1164;SDS011;571;50.930;6.926;2022-10-16T10:08:56;1.03;;;0.67;;
1164;SDS011;571;50.930;6.926;2022-10-16T10:14:22;1.47;;;0.53;;
1164;SDS011;571;50.930;6.926;2022-10-16T10:16:51;1.43;;;0.60;;
1164;SDS011;571;50.930;6.926;2022-10-16T10:19:19;1.57;;;0.80;;
1164;SDS011;571;50.930;6.926;2022-10-16T10:21:47;2.60;;;0.63;;
1164;SDS011;571;50.930;6.926;2022-10-16T10:24:16;1.90;;;1.07;;
1164;SDS011;571;50.930;6.926;2022-10-16T10:26:46;1.50;;;0.57;;
1164;SDS011;571;50.930;6.926;2022-10-16T10:29:20;1.17;;;0.57;;
1164;SDS011;571;50.930;6.926;2022-10-16T10:31:58;3.07;;;0.70;;
1164;SDS011;571;50.930;6.926;2022-10-16T10:34:40;0.97;;;0.40;;
1164;SDS011;571;50.930;6.926;2022-10-16T10:37:22;1.20;;;0.63;;
1164;SDS011;571;50.930;6.926;2022-10-16T10:40:01;1.90;;;0.80;;
1164;SDS011;571;50.930;6.926;2022-10-16T10:42:39;0.90;;;0.53;;
1164;SDS011;571;50.930;6.926;2022-10-16T10:45:18;3.27;;;0.70;;
1164;SDS011;571;50.930;6.926;2022-10-16T10:47:56;2.30;;;1.03;;
1164;SDS011;571;50.930;6.926;2022-10-16T10:50:33;1.37;;;0.60;;
1164;SDS011;571;50.930;6.926;2022-10-16T10:53:07;1.30;;;0.67;;
1164;SDS011;571;50.930;6.926;2022-10-16T10:55:43;1.33;;;0.87;;
1164;SDS011;571;50.930;6.926;2022-10-16T10:58:19;3.70;;;1.27;;
1164;SDS011;571;50.930;6.926;2022-10-16T11:01:07;1.80;;;0.60;;
1164;SDS011;571;50.930;6.926;2022-10-16T11:03:46;2.80;;;1.00;;
1164;SDS011;571;50.930;6.926;2022-10-16T11:06:32;1.07;;;0.47;;
1164;SDS011;571;50.930;6.926;2022-10-16T11:09:03;2.63;;;0.60;;
1164;SDS011;571;50.930;6.926;2022-10-16T11:11:40;0.90;;;0.40;;
1164;SDS011;571;50.930;6.926;2022-10-16T11:14:16;1.90;;;0.93;;
1164;SDS011;571;50.930;6.926;2022-10-16T11:16:50;4.47;;;1.37;;
1164;SDS011;571;50.930;6.926;2022-10-16T11:19:22;3.17;;;0.90;;
1164;SDS011;571;50.930;6.926;2022-10-16T11:22:00;8.07;;;1.83;;
1164;SDS011;571;50.930;6.926;2022-10-16T11:24:36;3.10;;;1.90;;
1164;SDS011;571;50.930;6.926;2022-10-16T11:27:09;3.70;;;1.63;;
1164;SDS011;571;50.930;6.926;2022-10-16T11:29:43;1.87;;;0.70;;
1164;SDS011;571;50.930;6.926;2022-10-16T11:32:19;3.57;;;0.97;;
1164;SDS011;571;50.930;6.926;2022-10-16T11:34:50;1.00;;;0.60;;
1164;SDS011;571;50.930;6.926;2022-10-16T11:37:50;4.60;;;0.60;;
1164;SDS011;571;50.930;6.926;2022-10-16T11:40:27;2.20;;;0.87;;
1164;SDS011;571;50.930;6.926;2022-10-16T11:43:02;1.30;;;0.63;;
1164;SDS011;571;50.930;6.926;2022-10-16T11:45:38;3.00;;;1.10;;
1164;SDS011;571;50.930;6.926;2022-10-16T11:48:15;2.70;;;0.50;;
1164;SDS011;571;50.930;6.926;2022-10-16T11:50:50;1.83;;;0.60;;
1164;SDS011;571;50.930;6.926;2022-10-16T11:53:23;1.27;;;0.80;;
1164;SDS011;571;50.930;6.926;2022-10-16T11:55:57;2.70;;;0.53;;
1164;SDS011;571;50.930;6.926;2022-10-16T11:58:25;1.03;;;0.53;;
1164;SDS011;571;50.930;6.926;2022-10-16T12:01:01;1.87;;;0.70;;
1164;SDS011;571;50.930;6.926;2022-10-16T12:03:46;2.07;;;0.70;;
1164;SDS011;571;50.930;6.926;2022-10-16T12:06:24;1.80;;;0.60;;
1164;SDS011;571;50.930;6.926;2022-10-16T12:08:58;2.77;;;0.80;;
1164;SDS011;571;50.930;6.926;2022-10-16T12:11:43;1.47;;;0.70;;
1164;SDS011;571;50.930;6.926;2022-10-16T12:14:33;1.27;;;0.50;;
1164;SDS011;571;50.930;6.926;2022-10-16T12:17:02;3.23;;;0.70;;
1164;SDS011;571;50.930;6.926;2022-10-16T12:22:48;1.37;;;0.50;;
1164;SDS011;571;50.930;6.926;2022-10-16T12:25:21;2.10;;;0.53;;
1164;SDS011;571;50.930;6.926;2022-10-16T12:27:59;1.53;;;0.30;;
1164;SDS011;571;50.930;6.926;2022-10-16T12:30:31;0.90;;;0.40;;
1164;SDS011;571;50.930;6.926;2022-10-16T12:34:14;1.30;;;0.53;;
1164;SDS011;571;50.930;6.926;2022-10-16T12:40:23;4.10;;;0.77;;
1164;SDS011;571;50.930;6.926;2022-10-16T12:49:48;3.70;;;0.53;;
1164;SDS011;571;50.930;6.926;2022-10-16T12:52:40;2.20;;;0.70;;
1164;SDS011;571;50.930;6.926;2022-10-16T12:55:16;0.97;;;0.60;;
1164;SDS011;571;50.930;6.926;2022-10-16T12:58:37;1.80;;;0.67;;
1164;SDS011;571;50.930;6.926;2022-10-16T13:01:32;6.53;;;1.00;;
1164;SDS011;571;50.930;6.926;2022-10-16T13:07:49;2.37;;;0.60;;
1164;SDS011;571;50.930;6.926;2022-10-16T13:10:50;1.70;;;0.77;;
1164;SDS011;571;50.930;6.926;2022-10-16T13:13:56;1.20;;;0.70;;
1164;SDS011;571;50.930;6.926;2022-10-16T13:16:46;1.10;;;0.50;;
1164;SDS011;571;50.930;6.926;2022-10-16T13:19:33;0.60;;;0.40;;
1164;SDS011;571;50.930;6.926;2022-10-16T13:22:17;1.60;;;0.63;;
1164;SDS011;571;50.930;6.926;2022-10-16T13:25:04;0.70;;;0.50;;
1164;SDS011;571;50.930;6.926;2022-10-16T13:27:49;1.83;;;0.80;;
1164;SDS011;571;50.930;6.926;2022-10-16T13:31:01;0.83;;;0.50;;
1164;SDS011;571;50.930;6.926;2022-10-16T13:33:52;1.43;;;0.40;;
1164;SDS011;571;50.930;6.926;2022-10-16T13:36:43;0.70;;;0.53;;
1164;SDS011;571;50.930;6.926;2022-10-16T13:39:34;1.33;;;0.50;;
1164;SDS011;571;50.930;6.926;2022-10-16T13:42:26;0.60;;;0.50;;
1164;SDS011;571;50.930;6.926;2022-10-16T13:45:19;3.50;;;2.20;;
1164;SDS011;571;50.930;6.926;2022-10-16T13:48:31;0.60;;;0.57;;
1164;SDS011;571;50.930;6.926;2022-10-16T13:51:11;2.40;;;0.60;;
1164;SDS011;571;50.930;6.926;2022-10-16T13:53:54;1.10;;;0.67;;
1164;SDS011;571;50.930;6.926;2022-10-16T13:56:46;2.40;;;0.70;;
1164;SDS011;571;50.930;6.926;2022-10-16T13:59:41;0.90;;;0.50;;
1164;SDS011;571;50.930;6.926;2022-10-16T14:05:42;1.03;;;0.70;;
1164;SDS011;571;50.930;6.926;2022-10-16T14:08:33;0.60;;;0.33;;
1164;SDS011;571;50.930;6.926;2022-10-16T14:11:44;1.30;;;0.60;;
1164;SDS011;571;50.930;6.926;2022-10-16T14:17:57;3.53;;;0.70;;
1164;SDS011;571;50.930;6.926;2022-10-16T14:20:52;0.90;;;0.50;;
1164;SDS011;571;50.930;6.926;2022-10-16T14:23:29;1.03;;;0.60;;
1164;SDS011;571;50.930;6.926;2022-10-16T14:26:40;1.00;;;0.60;;
1164;SDS011;571;50.930;6.926;2022-10-16T14:29:14;0.80;;;0.50;;
1164;SDS011;571;50.930;6.926;2022-10-16T14:31:55;0.70;;;0.63;;
1164;SDS011;571;50.930;6.926;2022-10-16T14:34:31;2.00;;;0.70;;
1164;SDS011;571;50.930;6.926;2022-10-16T14:37:10;1.67;;;0.70;;
1164;SDS011;571;50.930;6.926;2022-10-16T14:40:18;1.17;;;0.40;;
1164;SDS011;571;50.930;6.926;2022-10-16T14:42:55;1.30;;;0.53;;
1164;SDS011;571;50.930;6.926;2022-10-16T14:51:37;2.90;;;0.77;;
1164;SDS011;571;50.930;6.926;2022-10-16T15:00:33;1.43;;;1.03;;
1164;SDS011;571;50.930;6.926;2022-10-16T15:03:31;1.73;;;0.60;;
1164;SDS011;571;50.930;6.926;2022-10-16T15:06:04;1.47;;;0.80;;
1164;SDS011;571;50.930;6.926;2022-10-16T15:09:32;0.63;;;0.50;;
1164;SDS011;571;50.930;6.926;2022-10-16T15:20:51;0.80;;;0.80;;
1164;SDS011;571;50.930;6.926;2022-10-16T15:23:30;1.40;;;1.23;;
1164;SDS011;571;50.930;6.926;2022-10-16T15:29:17;1.70;;;1.60;;
1164;SDS011;571;50.930;6.926;2022-10-16T15:31:50;2.17;;;0.97;;
1164;SDS011;571;50.930;6.926;2022-10-16T15:37:15;1.37;;;0.67;;
1164;SDS011;571;50.930;6.926;2022-10-16T15:43:24;1.00;;;0.50;;
1164;SDS011;571;50.930;6.926;2022-10-16T15:53:17;1.57;;;0.67;;
1164;SDS011;571;50.930;6.926;2022-10-16T16:45:39;2.30;;;0.80;;
1164;SDS011;571;50.930;6.926;2022-10-16T16:48:42;1.00;;;0.90;;
1164;SDS011;571;50.930;6.926;2022-10-16T16:58:58;0.93;;;0.60;;
1164;SDS011;571;50.930;6.926;2022-10-16T18:36:13;2.60;;;1.60;;
1164;SDS011;571;50.930;6.926;2022-10-16T18:38:42;1.30;;;1.20;;
1164;SDS011;571;50.930;6.926;2022-10-16T18:41:21;3.60;;;1.73;;
1164;SDS011;571;50.930;6.926;2022-10-16T18:44:14;2.87;;;1.30;;
1164;SDS011;571;50.930;6.926;2022-10-16T18:47:03;1.83;;;1.07;;
1164;SDS011;571;50.930;6.926;2022-10-16T18:49:53;1.57;;;1.30;;
1164;SDS011;571;50.930;6.926;2022-10-16T18:56:02;2.57;;;1.50;;
1164;SDS011;571;50.930;6.926;2022-10-16T18:58:52;2.07;;;1.50;;
1164;SDS011;571;50.930;6.926;2022-10-16T19:01:31;1.53;;;1.20;;
1164;SDS011;571;50.930;6.926;2022-10-16T19:04:08;2.03;;;1.40;;
1164;SDS011;571;50.930;6.926;2022-10-16T19:06:49;2.00;;;1.30;;
1164;SDS011;571;50.930;6.926;2022-10-16T19:12:24;5.07;;;1.73;;
1164;SDS011;571;50.930;6.926;2022-10-16T19:15:23;2.97;;;1.53;;
1164;SDS011;571;50.930;6.926;2022-10-16T19:18:15;1.73;;;1.37;;
1164;SDS011;571;50.930;6.926;2022-10-16T19:21:09;3.20;;;1.60;;
1164;SDS011;571;50.930;6.926;2022-10-16T19:23:44;1.97;;;1.73;;
1164;SDS011;571;50.930;6.926;2022-10-16T19:26:18;2.20;;;1.90;;
1164;SDS011;571;50.930;6.926;2022-10-16T19:29:05;1.33;;;1.20;;
1164;SDS011;571;50.930;6.926;2022-10-16T19:31:40;1.60;;;1.47;;
1164;SDS011;571;50.930;6.926;2022-10-16T19:34:10;1.57;;;1.40;;
1164;SDS011;571;50.930;6.926;2022-10-16T19:36:38;2.40;;;1.40;;
1164;SDS011;571;50.930;6.926;2022-10-16T19:39:08;5.80;;;1.70;;
1164;SDS011;571;50.930;6.926;2022-10-16T19:41:43;2.70;;;2.30;;
1164;SDS011;571;50.930;6.926;2022-10-16T19:47:33;6.10;;;1.90;;
1164;SDS011;571;50.930;6.926;2022-10-16T19:50:04;1.70;;;1.60;;
1164;SDS011;571;50.930;6.926;2022-10-16T19:52:34;1.70;;;1.60;;
1164;SDS011;571;50.930;6.926;2022-10-16T19:55:07;2.20;;;1.97;;
1164;SDS011;571;50.930;6.926;2022-10-16T19:57:35;2.40;;;2.20;;
1164;SDS011;571;50.930;6.926;2022-10-16T20:00:09;2.33;;;2.00;;
1164;SDS011;571;50.930;6.926;2022-10-16T20:02:38;2.63;;;2.30;;
1164;SDS011;571;50.930;6.926;2022-10-16T20:05:20;2.73;;;2.23;;
1164;SDS011;571;50.930;6.926;2022-10-16T20:08:08;3.70;;;1.73;;
1164;SDS011;571;50.930;6.926;2022-10-16T20:10:46;3.97;;;1.80;;
1164;SDS011;571;50.930;6.926;2022-10-16T20:13:17;4.13;;;1.70;;
1164;SDS011;571;50.930;6.926;2022-10-16T20:16:03;3.00;;;2.40;;
1164;SDS011;571;50.930;6.926;2022-10-16T20:18:34;2.37;;;1.83;;
1164;SDS011;571;50.930;6.926;2022-10-16T20:24:09;2.47;;;1.93;;
1164;SDS011;571;50.930;6.926;2022-10-16T20:26:48;1.93;;;1.83;;
1164;SDS011;571;50.930;6.926;2022-10-16T20:29:27;3.47;;;2.30;;
1164;SDS011;571;50.930;6.926;2022-10-16T20:31:58;2.67;;;1.73;;
1164;SDS011;571;50.930;6.926;2022-10-16T20:34:30;3.70;;;2.10;;
1164;SDS011;571;50.930;6.926;2022-10-16T20:37:06;2.60;;;2.33;;
1164;SDS011;571;50.930;6.926;2022-10-16T20:39:47;2.50;;;2.30;;
1164;SDS011;571;50.930;6.926;2022-10-16T20:42:27;3.20;;;2.60;;
1164;SDS011;571;50.930;6.926;2022-10-16T20:45:09;2.30;;;2.10;;
1164;SDS011;571;50.930;6.926;2022-10-16T20:47:47;2.70;;;2.50;;
1164;SDS011;571;50.930;6.926;2022-10-16T20:50:17;5.00;;;2.60;;
1164;SDS011;571;50.930;6.926;2022-10-16T20:52:49;3.27;;;2.63;;
1164;SDS011;571;50.930;6.926;2022-10-16T20:55:42;3.03;;;2.70;;
1164;SDS011;571;50.930;6.926;2022-10-16T20:58:16;3.30;;;3.00;;
1164;SDS011;571;50.930;6.926;2022-10-16T21:00:52;4.47;;;2.90;;
1164;SDS011;571;50.930;6.926;2022-10-16T21:03:39;4.50;;;3.00;;
1164;SDS011;571;50.930;6.926;2022-10-16T21:06:17;4.03;;;2.70;;
1164;SDS011;571;50.930;6.926;2022-10-16T21:09:09;4.53;;;2.93;;
1164;SDS011;571;50.930;6.926;2022-10-16T21:11:42;4.97;;;2.93;;
1164;SDS011;571;50.930;6.926;2022-10-16T21:14:11;2.83;;;2.40;;
1164;SDS011;571;50.930;6.926;2022-10-16T21:16:53;3.43;;;3.13;;
1164;SDS011;571;50.930;6.926;2022-10-16T21:19:34;5.53;;;3.07;;
1164;SDS011;571;50.930;6.926;2022-10-16T21:22:08;3.23;;;2.93;;
1164;SDS011;571;50.930;6.926;2022-10-16T21:24:40;3.93;;;2.67;;
1164;SDS011;571;50.930;6.926;2022-10-16T21:27:18;4.13;;;3.30;;
1164;SDS011;571;50.930;6.926;2022-10-16T21:30:21;4.20;;;3.67;;
1164;SDS011;571;50.930;6.926;2022-10-16T21:33:17;5.50;;;3.40;;
1164;SDS011;571;50.930;6.926;2022-10-16T21:36:10;4.17;;;3.53;;
1164;SDS011;571;50.930;6.926;2022-10-16T21:39:04;4.00;;;3.63;;
1164;SDS011;571;50.930;6.926;2022-10-16T21:41:34;4.30;;;3.60;;
1164;SDS011;571;50.930;6.926;2022-10-16T21:44:05;6.10;;;4.77;;
1164;SDS011;571;50.930;6.926;2022-10-16T21:46:34;4.33;;;4.00;;
1164;SDS011;571;50.930;6.926;2022-10-16T21:49:11;6.00;;;3.63;;
1164;SDS011;571;50.930;6.926;2022-10-16T21:51:48;4.50;;;4.07;;
1164;SDS011;571;50.930;6.926;2022-10-16T21:54:20;5.90;;;4.87;;
1164;SDS011;571;50.930;6.926;2022-10-16T21:57:09;5.87;;;4.43;;
